createdAt,value
2022-11-13T00:00:46.912Z,10.70
2022-11-13T00:06:59.793Z,10.60
2022-11-13T00:13:11.922Z,10.60
2022-11-13T00:19:25.167Z,10.60
2022-11-13T00:25:37.596Z,10.60
2022-11-13T00:31:49.601Z,10.60
2022-11-13T00:38:02.951Z,10.60
2022-11-13T00:44:15.017Z,10.50
2022-11-13T00:50:27.129Z,10.50
2022-11-13T00:56:40.416Z,10.40
2022-11-13T01:02:52.558Z,10.40
2022-11-13T01:09:04.616Z,10.50
2022-11-13T01:15:17.812Z,10.40
2022-11-13T01:21:30.170Z,10.40
2022-11-13T01:27:42.064Z,10.40
2022-11-13T01:33:56.109Z,10.40
2022-11-13T01:40:09.201Z,10.40
2022-11-13T01:46:25.979Z,10.40
2022-11-13T01:52:41.971Z,10.30
2022-11-13T01:59:00.010Z,10.30
2022-11-13T02:05:11.917Z,10.30
2022-11-13T02:11:25.276Z,10.30
2022-11-13T02:17:44.395Z,10.30
2022-11-13T02:24:06.272Z,10.20
2022-11-13T02:30:26.903Z,10.20
2022-11-13T02:36:39.497Z,10.20
2022-11-13T02:42:50.999Z,10.20
2022-11-13T02:49:04.303Z,10.20
2022-11-13T02:55:16.447Z,10.20
2022-11-13T03:01:28.474Z,10.20
2022-11-13T03:07:41.894Z,10.20
2022-11-13T03:13:55.146Z,10.20
2022-11-13T03:20:08.252Z,10.10
2022-11-13T03:26:21.448Z,10.10
2022-11-13T03:32:33.560Z,10.10
2022-11-13T03:38:45.465Z,10.10
2022-11-13T03:44:58.812Z,10.10
2022-11-13T03:51:10.780Z,10.00
2022-11-13T03:57:23.003Z,10.00
2022-11-13T04:03:36.721Z,10.00
2022-11-13T04:09:48.037Z,10.00
2022-11-13T04:15:59.971Z,9.90
2022-11-13T04:22:13.424Z,9.90
2022-11-13T04:28:25.749Z,9.90
2022-11-13T04:34:37.913Z,9.90
2022-11-13T04:41:12.557Z,9.90
2022-11-13T04:47:24.655Z,9.80
2022-11-13T04:53:36.541Z,9.80
2022-11-13T04:59:49.813Z,9.80
2022-11-13T05:06:05.985Z,9.70
2022-11-13T05:12:17.563Z,9.70
2022-11-13T05:18:31.734Z,9.70
2022-11-13T05:24:43.148Z,9.70
2022-11-13T05:30:54.721Z,9.70
2022-11-13T05:37:07.634Z,9.60
2022-11-13T05:43:19.563Z,9.60
2022-11-13T05:49:31.626Z,9.50
2022-11-13T05:55:44.651Z,9.50
2022-11-13T06:01:56.667Z,9.50
2022-11-13T06:08:08.415Z,9.50
2022-11-13T06:14:21.699Z,9.50
2022-11-13T06:20:35.955Z,9.40
2022-11-13T06:26:47.672Z,9.40
2022-11-13T06:33:00.862Z,9.40
2022-11-13T06:39:13.409Z,9.40
2022-11-13T06:45:25.494Z,9.40
2022-11-13T06:51:38.910Z,9.40
2022-11-13T06:57:51.136Z,9.40
2022-11-13T07:04:03.945Z,9.40
2022-11-13T07:10:18.045Z,9.30
2022-11-13T07:16:44.125Z,9.30
2022-11-13T07:23:03.656Z,9.30
2022-11-13T07:29:17.225Z,9.30
2022-11-13T07:35:29.035Z,9.30
2022-11-13T07:41:40.767Z,9.30
2022-11-13T07:47:54.250Z,9.30
2022-11-13T07:54:06.175Z,9.20
2022-11-13T08:00:19.351Z,9.30
2022-11-13T08:06:32.637Z,9.30
2022-11-13T08:12:47.552Z,9.30
2022-11-13T08:18:59.215Z,9.40
2022-11-13T08:25:12.273Z,9.30
2022-11-13T08:31:24.286Z,9.20
2022-11-13T08:37:35.783Z,9.30
2022-11-13T08:43:49.074Z,9.20
2022-11-13T08:50:01.093Z,9.30
2022-11-13T08:56:12.636Z,9.30
2022-11-13T09:02:26.287Z,9.30
2022-11-13T09:08:38.237Z,9.40
2022-11-13T09:14:50.396Z,9.40
2022-11-13T09:21:04.534Z,9.40
2022-11-13T09:27:16.397Z,9.50
2022-11-13T09:33:28.483Z,9.50
2022-11-13T09:39:41.517Z,9.50
2022-11-13T09:45:57.837Z,9.60
2022-11-13T09:52:16.963Z,9.50
2022-11-13T09:58:49.851Z,9.40
2022-11-13T10:05:08.717Z,9.40
2022-11-13T10:11:28.005Z,9.40
2022-11-13T10:17:45.617Z,9.50
2022-11-13T10:23:58.577Z,9.40
2022-11-13T10:30:16.637Z,9.20
2022-11-13T10:36:37.710Z,9.30
2022-11-13T10:42:49.240Z,9.30
2022-11-13T10:49:13.129Z,9.30
2022-11-13T10:55:39.446Z,9.30
2022-11-13T11:01:51.421Z,9.40
2022-11-13T11:08:08.012Z,9.40
2022-11-13T11:14:25.004Z,9.40
2022-11-13T11:20:48.498Z,9.60
2022-11-13T11:27:06.302Z,9.50
2022-11-13T11:33:26.287Z,9.50
2022-11-13T11:39:43.476Z,9.60
2022-11-13T11:45:55.300Z,9.70
2022-11-13T11:52:22.869Z,9.70
2022-11-13T11:59:13.730Z,9.70
2022-11-13T12:05:31.083Z,9.60
2022-11-13T12:11:52.922Z,9.70
2022-11-13T12:18:15.739Z,9.80
2022-11-13T12:24:53.275Z,9.70
2022-11-13T12:31:18.838Z,9.70
2022-11-13T12:37:39.562Z,9.70
2022-11-13T12:44:05.032Z,9.80
2022-11-13T12:50:32.125Z,9.80
2022-11-13T12:56:44.527Z,9.80
2022-11-13T13:03:20.504Z,9.90
2022-11-13T13:09:45.472Z,9.90
2022-11-13T13:15:59.215Z,9.90
2022-11-13T13:22:12.827Z,9.90
2022-11-13T13:28:26.962Z,10.00
2022-11-13T13:34:58.793Z,10.00
2022-11-13T13:41:22.032Z,10.00
2022-11-13T13:47:39.628Z,10.00
2022-11-13T13:53:55.150Z,10.00
2022-11-13T14:00:13.078Z,10.00
2022-11-13T14:06:26.758Z,10.00
2022-11-13T14:12:43.725Z,10.00
2022-11-13T14:19:05.321Z,10.10
2022-11-13T14:25:24.716Z,10.10
2022-11-13T14:31:37.511Z,10.10
2022-11-13T14:37:49.917Z,10.20
2022-11-13T14:44:03.955Z,10.20
2022-11-13T14:50:24.607Z,10.20
2022-11-13T14:56:38.396Z,10.20
2022-11-13T15:02:51.358Z,10.10
2022-11-13T15:09:04.100Z,10.00
2022-11-13T15:15:19.376Z,10.10
2022-11-13T15:21:33.150Z,10.20
2022-11-13T15:27:45.191Z,10.10
2022-11-13T15:33:57.268Z,10.20
2022-11-13T15:40:12.089Z,10.20
2022-11-13T15:46:25.418Z,10.20
2022-11-13T15:52:42.403Z,10.20
2022-11-13T15:58:55.759Z,10.20
2022-11-13T16:05:09.002Z,10.20
2022-11-13T16:11:21.900Z,10.30
2022-11-13T16:17:42.651Z,10.30
2022-11-13T16:23:54.583Z,10.30
2022-11-13T16:30:07.436Z,10.30
2022-11-13T16:36:22.621Z,10.30
2022-11-13T16:42:34.494Z,10.30
2022-11-13T16:48:46.897Z,10.40
2022-11-13T16:55:05.239Z,10.30
2022-11-13T17:01:19.924Z,10.30
2022-11-13T17:07:31.554Z,10.40
2022-11-13T17:13:45.202Z,10.40
2022-11-13T17:19:57.887Z,10.30
2022-11-13T17:26:09.872Z,10.30
2022-11-13T17:32:23.376Z,10.30
2022-11-13T17:38:35.259Z,10.40
2022-11-13T17:44:47.326Z,10.20
2022-11-13T17:51:02.587Z,10.30
2022-11-13T17:57:15.037Z,10.30
2022-11-13T18:03:27.587Z,10.30
2022-11-13T18:09:40.927Z,10.40
2022-11-13T18:15:52.744Z,10.40
2022-11-13T18:22:04.513Z,10.40
2022-11-13T18:28:18.402Z,10.30
2022-11-13T18:34:30.405Z,10.30
2022-11-13T18:40:42.563Z,10.30
2022-11-13T18:46:56.082Z,10.40
2022-11-13T18:53:08.246Z,10.40
2022-11-13T18:59:20.288Z,10.30
2022-11-13T19:05:33.694Z,10.40
2022-11-13T19:11:46.100Z,10.40
2022-11-13T19:17:58.196Z,10.40
2022-11-13T19:24:14.505Z,10.40
2022-11-13T19:30:25.877Z,10.40
2022-11-13T19:36:38.448Z,10.40
2022-11-13T19:42:52.942Z,10.40
2022-11-13T19:49:05.023Z,10.30
2022-11-13T19:55:17.017Z,10.30
2022-11-13T20:01:32.374Z,10.40
2022-11-13T20:07:43.957Z,10.40
2022-11-13T20:13:57.308Z,10.40
2022-11-13T20:20:11.491Z,10.40
2022-11-13T20:26:23.650Z,10.40
2022-11-13T20:32:38.160Z,10.40
2022-11-13T20:38:53.426Z,10.40
2022-11-13T20:45:06.722Z,10.40
2022-11-13T20:51:20.861Z,10.40
2022-11-13T20:57:40.914Z,10.40
2022-11-13T21:03:53.768Z,10.40
2022-11-13T21:10:06.846Z,10.40
2022-11-13T21:16:20.958Z,10.30
2022-11-13T21:22:33.175Z,10.40
2022-11-13T21:28:45.364Z,10.40
2022-11-13T21:34:59.667Z,10.40
2022-11-13T21:41:25.219Z,10.30
2022-11-13T21:47:37.642Z,10.30
2022-11-13T21:53:50.912Z,10.30
2022-11-13T22:00:02.968Z,10.30
2022-11-13T22:06:21.045Z,10.20
2022-11-13T22:12:34.421Z,10.20
2022-11-13T22:18:46.459Z,10.20
2022-11-13T22:24:58.536Z,10.10
2022-11-13T22:31:16.091Z,10.00
2022-11-13T22:37:27.921Z,10.00
2022-11-13T22:43:41.619Z,10.00
2022-11-13T22:49:55.039Z,10.00
2022-11-13T22:56:09.831Z,10.00
2022-11-13T23:02:21.805Z,9.90
2022-11-13T23:08:39.045Z,9.90
2022-11-13T23:14:50.986Z,9.90
2022-11-13T23:21:03.104Z,9.80
2022-11-13T23:27:16.197Z,9.80
2022-11-13T23:33:28.855Z,9.90
2022-11-13T23:39:40.145Z,9.90
2022-11-13T23:45:53.648Z,9.90
2022-11-13T23:52:05.900Z,9.80
2022-11-13T23:58:18.401Z,9.80
